createdAt,value
2023-05-25T00:01:01.286Z,2.07
2023-05-25T00:03:31.735Z,2.00
2023-05-25T00:06:01.543Z,2.10
2023-05-25T00:08:30.174Z,1.90
2023-05-25T00:10:59.834Z,2.00
2023-05-25T00:13:27.892Z,1.87
2023-05-25T00:15:56.023Z,1.97
2023-05-25T00:18:25.008Z,1.90
2023-05-25T00:20:54.308Z,1.80
2023-05-25T00:23:22.515Z,1.90
2023-05-25T00:25:52.013Z,2.40
2023-05-25T00:28:21.443Z,2.50
2023-05-25T00:30:50.292Z,2.50
2023-05-25T00:33:18.673Z,2.60
2023-05-25T00:35:47.047Z,2.17
2023-05-25T00:38:18.582Z,2.20
2023-05-25T00:40:46.810Z,2.07
2023-05-25T00:43:15.184Z,1.97
2023-05-25T00:45:44.747Z,2.00
2023-05-25T00:48:13.901Z,1.90
2023-05-25T00:50:43.495Z,2.07
2023-05-25T00:53:12.977Z,2.30
2023-05-25T00:55:54.609Z,2.13
2023-05-25T00:58:25.941Z,1.93
2023-05-25T01:00:56.456Z,1.90
2023-05-25T01:03:27.874Z,1.80
2023-05-25T01:05:58.511Z,2.30
2023-05-25T01:08:27.006Z,2.20
2023-05-25T01:10:56.132Z,2.00
2023-05-25T01:13:28.789Z,2.43
2023-05-25T01:16:00.283Z,2.13
2023-05-25T01:18:28.443Z,2.03
2023-05-25T01:21:13.286Z,2.10
2023-05-25T01:23:44.535Z,2.00
2023-05-25T01:26:15.178Z,2.37
2023-05-25T01:28:51.361Z,2.30
2023-05-25T01:31:22.382Z,2.33
2023-05-25T01:33:52.129Z,2.60
2023-05-25T01:36:21.747Z,2.10
2023-05-25T01:38:50.530Z,2.00
2023-05-25T01:41:18.573Z,2.13
2023-05-25T01:43:46.975Z,2.20
2023-05-25T01:46:21.110Z,2.07
2023-05-25T01:48:54.364Z,2.17
2023-05-25T01:51:29.425Z,2.10
2023-05-25T01:54:01.753Z,2.20
2023-05-25T01:56:30.486Z,1.80
2023-05-25T01:58:59.818Z,2.50
2023-05-25T02:01:28.912Z,2.20
2023-05-25T02:03:58.081Z,2.40
2023-05-25T02:06:27.533Z,2.53
2023-05-25T02:08:55.638Z,1.80
2023-05-25T02:11:23.695Z,2.30
2023-05-25T02:13:51.831Z,2.17
2023-05-25T02:16:19.883Z,2.30
2023-05-25T02:18:47.996Z,2.77
2023-05-25T02:21:17.470Z,2.80
2023-05-25T02:23:47.839Z,2.87
2023-05-25T02:26:15.999Z,2.77
2023-05-25T02:28:44.828Z,2.67
2023-05-25T02:31:12.963Z,2.50
2023-05-25T02:33:41.173Z,2.60
2023-05-25T02:36:09.894Z,2.33
2023-05-25T02:38:37.998Z,2.90
2023-05-25T02:41:07.749Z,2.30
2023-05-25T02:43:35.954Z,2.70
2023-05-25T02:46:04.089Z,2.57
2023-05-25T02:48:32.207Z,2.80
2023-05-25T02:51:00.383Z,2.77
2023-05-25T02:53:28.471Z,3.00
2023-05-25T02:55:56.676Z,2.80
2023-05-25T02:58:28.881Z,2.97
2023-05-25T03:01:18.296Z,2.90
2023-05-25T03:03:52.588Z,3.10
2023-05-25T03:06:23.050Z,3.37
2023-05-25T03:08:55.562Z,2.57
2023-05-25T03:11:23.661Z,3.17
2023-05-25T03:13:53.711Z,2.20
2023-05-25T03:16:24.057Z,2.53
2023-05-25T03:18:52.227Z,2.97
2023-05-25T03:21:22.459Z,2.20
2023-05-25T03:23:56.744Z,2.33
2023-05-25T03:26:25.961Z,3.20
2023-05-25T03:28:56.387Z,3.80
2023-05-25T03:31:24.845Z,2.90
2023-05-25T03:33:53.454Z,2.50
2023-05-25T03:36:23.359Z,3.07
2023-05-25T03:38:51.443Z,2.83
2023-05-25T03:41:20.145Z,2.40
2023-05-25T03:43:51.262Z,3.23
2023-05-25T03:46:20.884Z,2.60
2023-05-25T03:48:49.052Z,3.43
2023-05-25T03:51:17.497Z,3.03
2023-05-25T03:53:46.733Z,3.43
2023-05-25T03:56:14.798Z,2.87
2023-05-25T03:58:42.835Z,2.50
2023-05-25T04:01:12.527Z,3.73
2023-05-25T04:03:42.124Z,2.80
2023-05-25T04:06:10.406Z,3.53
2023-05-25T04:08:41.086Z,3.00
2023-05-25T04:11:09.263Z,2.70
2023-05-25T04:13:40.146Z,2.80
2023-05-25T04:16:10.324Z,2.83
2023-05-25T04:18:38.634Z,3.37
2023-05-25T04:21:08.227Z,3.13
2023-05-25T04:23:36.640Z,2.90
2023-05-25T04:26:10.256Z,3.10
2023-05-25T04:28:41.049Z,3.20
2023-05-25T04:31:14.666Z,2.53
2023-05-25T04:33:49.367Z,3.13
2023-05-25T04:36:32.664Z,2.40
2023-05-25T04:39:04.547Z,3.07
2023-05-25T04:41:35.053Z,3.23
2023-05-25T04:44:09.590Z,2.20
2023-05-25T04:46:44.722Z,2.77
2023-05-25T04:49:19.814Z,2.93
2023-05-25T04:51:49.271Z,2.90
2023-05-25T04:54:17.518Z,2.73
2023-05-25T04:56:45.692Z,2.60
2023-05-25T04:59:14.049Z,2.40
2023-05-25T05:01:42.251Z,2.97
2023-05-25T05:04:13.427Z,3.27
2023-05-25T05:06:41.599Z,2.50
2023-05-25T05:09:16.073Z,2.50
2023-05-25T05:11:46.106Z,2.47
2023-05-25T05:14:14.631Z,2.60
2023-05-25T05:16:44.843Z,2.53
2023-05-25T05:19:13.094Z,2.90
2023-05-25T05:21:42.193Z,2.37
2023-05-25T05:24:10.554Z,2.70
2023-05-25T05:26:56.194Z,2.57
2023-05-25T05:29:29.656Z,2.33
2023-05-25T05:31:58.832Z,2.50
2023-05-25T05:34:27.163Z,2.60
2023-05-25T05:36:58.546Z,2.23
2023-05-25T05:39:28.662Z,2.63
2023-05-25T05:41:58.347Z,2.50
2023-05-25T05:44:28.961Z,2.87
2023-05-25T05:47:01.241Z,2.20
2023-05-25T05:49:30.186Z,2.00
2023-05-25T05:51:59.476Z,2.60
2023-05-25T05:54:28.622Z,2.33
2023-05-25T05:57:01.559Z,2.30
2023-05-25T05:59:29.746Z,2.40
2023-05-25T06:01:57.943Z,2.83
2023-05-25T06:04:28.893Z,2.10
2023-05-25T06:06:58.514Z,2.00
2023-05-25T06:09:27.337Z,2.70
2023-05-25T06:11:59.039Z,2.23
2023-05-25T06:14:28.965Z,2.53
2023-05-25T06:17:00.488Z,2.43
2023-05-25T06:19:28.827Z,2.70
2023-05-25T06:21:57.067Z,2.53
2023-05-25T06:24:25.113Z,2.60
2023-05-25T06:26:53.287Z,2.63
2023-05-25T06:29:21.693Z,2.43
2023-05-25T06:31:51.162Z,2.20
2023-05-25T06:34:19.837Z,2.20
2023-05-25T06:36:47.933Z,2.90
2023-05-25T06:39:16.428Z,2.80
2023-05-25T06:41:44.826Z,3.03
2023-05-25T06:44:15.766Z,3.20
2023-05-25T06:46:48.916Z,3.10
2023-05-25T06:49:18.787Z,2.53
2023-05-25T06:51:46.819Z,2.47
2023-05-25T06:54:15.025Z,2.97
2023-05-25T06:56:43.139Z,2.90
2023-05-25T06:59:11.293Z,3.60
2023-05-25T07:01:39.467Z,2.83
2023-05-25T07:04:07.566Z,2.43
2023-05-25T07:06:37.064Z,2.80
2023-05-25T07:09:05.223Z,3.03
2023-05-25T07:11:33.312Z,3.50
2023-05-25T07:14:01.376Z,3.00
2023-05-25T07:16:29.593Z,3.37
2023-05-25T07:18:59.409Z,2.97
2023-05-25T07:21:28.328Z,3.03
2023-05-25T07:23:57.759Z,3.20
2023-05-25T07:26:25.861Z,3.57
2023-05-25T07:28:53.959Z,3.27
2023-05-25T07:31:22.462Z,3.10
2023-05-25T07:33:50.863Z,3.53
2023-05-25T07:36:19.036Z,3.30
2023-05-25T07:38:47.825Z,3.23
2023-05-25T07:41:17.268Z,4.43
2023-05-25T07:43:45.557Z,3.83
2023-05-25T07:46:13.638Z,3.57
2023-05-25T07:48:41.700Z,3.10
2023-05-25T07:51:09.925Z,4.30
2023-05-25T07:53:38.018Z,4.17
2023-05-25T07:56:08.508Z,4.37
2023-05-25T07:58:39.915Z,3.47
2023-05-25T08:01:07.970Z,3.73
2023-05-25T08:03:49.168Z,4.20
2023-05-25T08:06:18.382Z,3.77
2023-05-25T08:08:47.143Z,4.10
2023-05-25T08:11:16.839Z,4.20
2023-05-25T08:13:46.332Z,4.97
2023-05-25T08:16:15.349Z,4.77
2023-05-25T08:18:46.752Z,4.20
2023-05-25T08:21:17.204Z,4.67
2023-05-25T08:23:45.322Z,5.20
2023-05-25T08:28:44.389Z,4.87
2023-05-25T08:31:13.833Z,5.10
2023-05-25T08:33:42.138Z,5.57
2023-05-25T08:36:10.311Z,4.40
2023-05-25T08:38:38.398Z,5.90
2023-05-25T08:41:07.796Z,4.63
2023-05-25T08:43:36.429Z,6.57
2023-05-25T08:46:06.188Z,5.80
2023-05-25T08:48:41.935Z,4.80
2023-05-25T08:51:12.294Z,5.10
2023-05-25T08:53:41.852Z,4.97
2023-05-25T08:56:12.797Z,6.10
2023-05-25T08:58:45.520Z,5.50
2023-05-25T09:01:16.199Z,5.47
2023-05-25T09:03:46.321Z,6.63
2023-05-25T09:06:15.143Z,6.07
2023-05-25T09:08:43.625Z,7.30
2023-05-25T09:11:16.550Z,4.83
2023-05-25T09:13:45.714Z,5.70
2023-05-25T09:16:13.748Z,6.00
2023-05-25T09:18:41.833Z,7.50
2023-05-25T09:21:11.292Z,6.43
2023-05-25T09:23:39.425Z,6.73
2023-05-25T09:26:07.595Z,6.70
2023-05-25T09:28:36.133Z,6.37
2023-05-25T09:31:04.206Z,5.93
2023-05-25T09:33:32.341Z,7.33
2023-05-25T09:36:00.894Z,7.90
2023-05-25T09:38:31.675Z,7.57
2023-05-25T09:41:00.008Z,6.70
2023-05-25T09:43:40.743Z,7.93
2023-05-25T09:46:12.999Z,6.90
2023-05-25T09:48:41.419Z,6.40
2023-05-25T09:51:10.130Z,7.07
2023-05-25T09:53:39.584Z,7.30
2023-05-25T09:56:07.902Z,8.17
2023-05-25T09:58:37.117Z,8.07
2023-05-25T10:01:05.633Z,9.23
2023-05-25T10:03:33.779Z,7.10
2023-05-25T10:06:02.383Z,6.50
2023-05-25T10:08:31.161Z,6.60
2023-05-25T10:11:00.844Z,7.10
2023-05-25T10:13:30.804Z,5.80
2023-05-25T10:15:59.377Z,6.10
2023-05-25T10:18:29.794Z,5.60
2023-05-25T10:21:02.781Z,5.63
2023-05-25T10:23:35.675Z,6.50
2023-05-25T10:26:08.728Z,5.70
2023-05-25T10:28:38.465Z,6.43
2023-05-25T10:31:06.923Z,6.73
2023-05-25T10:33:35.058Z,6.50
2023-05-25T10:36:10.650Z,6.80
2023-05-25T10:38:40.816Z,6.23
2023-05-25T10:41:12.609Z,6.40
2023-05-25T10:43:41.227Z,4.27
2023-05-25T10:46:09.692Z,5.07
2023-05-25T10:48:38.530Z,4.23
2023-05-25T10:51:10.070Z,3.90
2023-05-25T10:53:40.063Z,3.47
2023-05-25T10:56:10.735Z,4.73
2023-05-25T10:58:43.791Z,8.40
2023-05-25T11:01:13.237Z,3.70
2023-05-25T11:03:56.677Z,4.43
2023-05-25T11:06:41.310Z,5.20
2023-05-25T11:09:24.781Z,5.40
2023-05-25T11:12:03.786Z,4.47
2023-05-25T11:14:37.792Z,4.60
2023-05-25T11:17:07.901Z,4.47
2023-05-25T11:19:49.592Z,4.10
2023-05-25T11:22:21.261Z,4.70
2023-05-25T11:24:49.885Z,4.03
2023-05-25T11:27:24.620Z,3.10
2023-05-25T11:29:55.087Z,3.63
2023-05-25T11:32:23.709Z,3.07
2023-05-25T11:34:54.050Z,3.60
2023-05-25T11:37:25.195Z,3.40
2023-05-25T11:39:54.395Z,2.80
2023-05-25T11:42:23.870Z,4.00
2023-05-25T11:44:52.258Z,2.90
2023-05-25T11:47:25.365Z,1.93
2023-05-25T11:49:56.739Z,3.27
2023-05-25T11:52:24.879Z,3.23
2023-05-25T11:54:53.379Z,2.40
2023-05-25T11:57:24.812Z,2.23
2023-05-25T11:59:54.685Z,2.60
2023-05-25T12:02:25.030Z,2.13
2023-05-25T12:04:57.095Z,2.87
2023-05-25T12:07:26.185Z,3.10
2023-05-25T12:10:05.867Z,3.27
2023-05-25T12:12:39.546Z,2.50
2023-05-25T12:15:09.107Z,3.20
2023-05-25T12:17:41.498Z,2.60
2023-05-25T12:20:11.166Z,2.73
2023-05-25T12:22:39.749Z,2.73
2023-05-25T12:25:10.285Z,2.83
2023-05-25T12:27:38.582Z,2.33
2023-05-25T12:30:10.623Z,2.73
2023-05-25T12:35:46.895Z,2.70
2023-05-25T12:38:16.330Z,2.43
2023-05-25T12:40:45.146Z,2.87
2023-05-25T12:43:14.329Z,2.67
2023-05-25T12:45:43.113Z,2.70
2023-05-25T12:48:12.098Z,2.33
2023-05-25T12:50:58.139Z,2.50
2023-05-25T12:53:27.250Z,2.40
2023-05-25T12:56:02.641Z,2.60
2023-05-25T12:58:30.759Z,2.00
2023-05-25T13:00:58.906Z,2.43
2023-05-25T13:03:27.123Z,2.23
2023-05-25T13:06:01.231Z,2.30
2023-05-25T13:08:29.366Z,1.63
2023-05-25T13:10:57.728Z,2.03
2023-05-25T13:13:25.826Z,2.27
2023-05-25T13:15:54.010Z,1.97
2023-05-25T13:18:22.101Z,1.73
2023-05-25T13:20:52.497Z,2.20
2023-05-25T13:23:23.758Z,1.80
2023-05-25T13:25:51.867Z,1.67
2023-05-25T13:28:20.128Z,2.27
2023-05-25T13:30:48.309Z,1.73
2023-05-25T13:33:16.527Z,2.03
2023-05-25T13:35:58.840Z,1.90
2023-05-25T13:38:29.641Z,2.20
2023-05-25T13:40:58.083Z,1.97
2023-05-25T13:43:26.215Z,1.77
2023-05-25T13:45:54.411Z,1.90
2023-05-25T13:48:22.721Z,2.10
2023-05-25T13:50:50.824Z,2.20
2023-05-25T13:53:18.884Z,1.60
2023-05-25T13:55:48.805Z,1.97
2023-05-25T13:58:16.883Z,2.07
2023-05-25T14:00:45.244Z,2.07
2023-05-25T14:03:14.172Z,2.00
2023-05-25T14:05:42.707Z,1.83
2023-05-25T14:08:12.659Z,1.57
2023-05-25T14:10:40.990Z,1.60
2023-05-25T14:13:10.390Z,2.10
2023-05-25T14:15:38.536Z,1.70
2023-05-25T14:18:06.866Z,1.73
2023-05-25T14:20:37.292Z,1.60
2023-05-25T14:23:05.514Z,1.70
2023-05-25T14:25:33.591Z,1.50
2023-05-25T14:28:01.644Z,2.17
2023-05-25T14:30:31.043Z,1.63
2023-05-25T14:33:00.493Z,1.57
2023-05-25T14:35:28.604Z,1.60
2023-05-25T14:37:56.724Z,1.27
2023-05-25T14:40:24.785Z,1.50
2023-05-25T14:42:55.450Z,1.97
2023-05-25T14:45:23.758Z,2.10
2023-05-25T14:48:00.929Z,1.50
2023-05-25T14:50:42.015Z,1.70
2023-05-25T14:53:10.051Z,1.43
2023-05-25T14:55:38.159Z,1.77
2023-05-25T14:58:06.221Z,1.43
2023-05-25T15:00:34.296Z,1.60
2023-05-25T15:03:03.959Z,1.70
2023-05-25T15:05:32.099Z,1.40
2023-05-25T15:08:00.228Z,1.40
2023-05-25T15:10:29.663Z,1.70
2023-05-25T15:12:57.702Z,1.70
2023-05-25T15:15:25.760Z,1.63
2023-05-25T15:17:54.846Z,1.40
2023-05-25T15:20:24.439Z,1.40
2023-05-25T15:22:53.915Z,1.30
2023-05-25T15:25:35.146Z,1.23
2023-05-25T15:28:04.004Z,1.67
2023-05-25T15:30:34.130Z,1.63
2023-05-25T15:33:02.367Z,1.60
2023-05-25T15:35:32.442Z,1.77
2023-05-25T15:38:01.217Z,1.43
2023-05-25T15:40:29.543Z,1.70
2023-05-25T15:42:57.628Z,1.47
2023-05-25T15:45:26.354Z,1.50
2023-05-25T15:47:54.586Z,1.43
2023-05-25T15:50:22.791Z,1.50
2023-05-25T15:52:52.245Z,1.70
2023-05-25T15:55:20.691Z,1.57
2023-05-25T15:57:48.814Z,1.93
2023-05-25T16:00:17.562Z,2.13
2023-05-25T16:02:45.730Z,1.50
2023-05-25T16:05:14.106Z,1.33
2023-05-25T16:07:42.260Z,1.40
2023-05-25T16:10:11.970Z,1.60
2023-05-25T16:12:40.047Z,1.37
2023-05-25T16:15:08.991Z,1.40
2023-05-25T16:17:37.338Z,1.70
2023-05-25T16:20:07.199Z,1.40
2023-05-25T16:22:35.331Z,1.57
2023-05-25T16:25:03.401Z,1.40
2023-05-25T16:27:32.837Z,1.77
2023-05-25T16:30:00.955Z,1.63
2023-05-25T16:32:29.447Z,1.20
2023-05-25T16:34:57.534Z,1.27
2023-05-25T16:37:25.973Z,1.40
2023-05-25T16:39:54.010Z,1.40
2023-05-25T16:42:24.945Z,1.87
2023-05-25T16:44:54.396Z,1.57
2023-05-25T16:47:22.784Z,1.43
2023-05-25T16:49:50.853Z,1.80
2023-05-25T16:52:18.905Z,1.53
2023-05-25T16:54:46.989Z,1.50
2023-05-25T16:57:15.041Z,1.70
2023-05-25T16:59:43.090Z,1.97
2023-05-25T17:02:12.517Z,1.63
2023-05-25T17:04:40.538Z,1.50
2023-05-25T17:07:08.583Z,1.90
2023-05-25T17:09:36.754Z,1.70
2023-05-25T17:12:05.122Z,1.67
2023-05-25T17:14:33.168Z,1.60
2023-05-25T17:17:01.235Z,1.70
2023-05-25T17:19:30.759Z,1.67
2023-05-25T17:21:58.827Z,2.17
2023-05-25T17:24:28.338Z,1.50
2023-05-25T17:26:56.501Z,1.70
2023-05-25T17:29:24.558Z,1.60
2023-05-25T17:31:52.816Z,1.40
2023-05-25T17:34:21.182Z,1.50
2023-05-25T17:36:50.675Z,2.00
2023-05-25T17:39:18.709Z,1.90
2023-05-25T17:41:47.299Z,1.80
2023-05-25T17:44:15.356Z,1.80
2023-05-25T17:46:43.367Z,1.80
2023-05-25T17:49:11.482Z,2.73
2023-05-25T17:51:39.686Z,2.20
2023-05-25T17:54:09.111Z,1.50
2023-05-25T17:56:37.186Z,1.80
2023-05-25T17:59:05.228Z,1.60
2023-05-25T18:01:35.198Z,1.70
2023-05-25T18:04:03.563Z,1.87
2023-05-25T18:06:31.740Z,2.67
2023-05-25T18:08:59.941Z,1.70
2023-05-25T18:11:30.099Z,2.03
2023-05-25T18:13:58.140Z,2.50
2023-05-25T18:16:26.255Z,1.60
2023-05-25T18:18:54.337Z,1.80
2023-05-25T18:21:22.390Z,2.43
2023-05-25T18:23:50.418Z,2.00
2023-05-25T18:26:18.455Z,3.00
2023-05-25T18:28:48.245Z,2.03
2023-05-25T18:31:16.472Z,1.93
2023-05-25T18:33:44.538Z,2.07
2023-05-25T18:36:12.817Z,2.20
2023-05-25T18:38:40.918Z,2.33
2023-05-25T18:41:09.035Z,2.13
2023-05-25T18:43:37.143Z,2.30
2023-05-25T18:46:06.617Z,1.90
2023-05-25T18:48:34.929Z,2.13
2023-05-25T18:51:03.324Z,2.70
2023-05-25T18:53:31.342Z,2.47
2023-05-25T18:55:59.431Z,2.27
2023-05-25T18:58:27.457Z,2.40
2023-05-25T19:00:55.488Z,2.70
2023-05-25T19:03:25.056Z,2.57
2023-05-25T19:05:53.256Z,2.47
2023-05-25T19:08:21.305Z,2.70
2023-05-25T19:10:49.402Z,2.63
2023-05-25T19:13:17.492Z,2.90
2023-05-25T19:15:46.007Z,2.43
2023-05-25T19:18:14.370Z,3.20
2023-05-25T19:20:43.943Z,2.80
2023-05-25T19:23:12.155Z,2.90
2023-05-25T19:25:40.203Z,3.10
2023-05-25T19:28:08.259Z,2.73
2023-05-25T19:30:36.291Z,3.20
2023-05-25T19:33:04.476Z,3.23
2023-05-25T19:35:32.574Z,3.63
2023-05-25T19:38:02.357Z,3.87
2023-05-25T19:40:30.532Z,4.13
2023-05-25T19:42:58.588Z,3.87
2023-05-25T19:45:26.704Z,3.30
2023-05-25T19:47:55.355Z,3.97
2023-05-25T19:50:23.524Z,4.20
2023-05-25T19:52:51.616Z,4.00
2023-05-25T19:55:21.088Z,5.13
2023-05-25T19:57:49.124Z,4.50
2023-05-25T20:00:25.466Z,4.13
2023-05-25T20:02:55.279Z,5.07
2023-05-25T20:05:23.647Z,5.30
2023-05-25T20:07:52.582Z,5.00
2023-05-25T20:10:22.152Z,5.67
2023-05-25T20:12:50.287Z,5.27
2023-05-25T20:15:18.417Z,5.20
2023-05-25T20:17:46.531Z,6.10
2023-05-25T20:20:14.800Z,6.57
2023-05-25T20:22:42.935Z,5.70
2023-05-25T20:25:11.083Z,7.00
2023-05-25T20:27:40.497Z,6.20
2023-05-25T20:30:09.447Z,7.80
2023-05-25T20:32:37.582Z,7.03
2023-05-25T20:35:06.129Z,8.00
2023-05-25T20:37:34.162Z,7.10
2023-05-25T20:40:02.287Z,7.20
2023-05-25T20:42:30.357Z,8.20
2023-05-25T20:44:59.890Z,6.80
2023-05-25T20:47:28.583Z,7.00
2023-05-25T20:49:56.680Z,7.03
2023-05-25T20:52:24.861Z,7.20
2023-05-25T20:54:52.889Z,7.90
2023-05-25T20:57:20.922Z,7.73
2023-05-25T20:59:51.592Z,8.57
2023-05-25T21:02:21.061Z,8.93
2023-05-25T21:04:49.059Z,8.37
2023-05-25T21:07:18.806Z,7.20
2023-05-25T21:09:47.093Z,7.20
2023-05-25T21:12:15.208Z,8.37
2023-05-25T21:14:43.290Z,9.47
2023-05-25T21:17:11.634Z,8.30
2023-05-25T21:19:41.063Z,8.23
2023-05-25T21:22:09.410Z,8.37
2023-05-25T21:24:37.440Z,7.40
2023-05-25T21:27:06.287Z,8.83
2023-05-25T21:29:34.330Z,7.70
2023-05-25T21:32:02.557Z,8.73
2023-05-25T21:34:30.581Z,8.13
2023-05-25T21:36:59.986Z,7.00
2023-05-25T21:39:28.143Z,5.97
2023-05-25T21:41:56.221Z,7.67
2023-05-25T21:44:24.405Z,9.37
2023-05-25T21:46:52.461Z,7.27
2023-05-25T21:49:20.555Z,7.83
2023-05-25T21:51:48.546Z,8.00
2023-05-25T21:54:18.176Z,7.70
2023-05-25T21:56:46.361Z,6.87
2023-05-25T21:59:14.418Z,7.90
2023-05-25T22:01:42.537Z,7.23
2023-05-25T22:04:10.707Z,7.23
2023-05-25T22:06:38.752Z,7.43
2023-05-25T22:09:06.846Z,6.40
2023-05-25T22:11:37.281Z,6.53
2023-05-25T22:14:05.912Z,5.20
2023-05-25T22:16:34.063Z,6.73
2023-05-25T22:19:02.183Z,5.77
2023-05-25T22:21:30.211Z,5.27
2023-05-25T22:23:58.293Z,5.10
2023-05-25T22:26:27.394Z,6.20
2023-05-25T22:28:56.811Z,5.80
2023-05-25T22:31:25.786Z,5.00
2023-05-25T22:33:53.959Z,5.50
2023-05-25T22:36:22.135Z,5.07
2023-05-25T22:38:50.187Z,4.90
2023-05-25T22:41:18.214Z,5.17
2023-05-25T22:43:46.626Z,4.83
2023-05-25T22:46:16.169Z,4.40
2023-05-25T22:48:44.419Z,4.07
2023-05-25T22:51:12.768Z,4.30
2023-05-25T22:53:40.872Z,4.10
2023-05-25T22:56:09.017Z,3.93
2023-05-25T22:58:37.089Z,4.73
2023-05-25T23:01:05.271Z,4.30
2023-05-25T23:03:34.883Z,3.90
2023-05-25T23:06:03.089Z,4.17
2023-05-25T23:08:31.202Z,4.07
2023-05-25T23:10:59.258Z,3.70
2023-05-25T23:13:27.856Z,3.53
2023-05-25T23:15:56.102Z,3.77
2023-05-25T23:18:24.222Z,3.77
2023-05-25T23:20:55.239Z,3.60
2023-05-25T23:23:23.292Z,3.60
2023-05-25T23:25:51.455Z,3.70
2023-05-25T23:28:19.557Z,3.37
2023-05-25T23:30:47.634Z,3.50
2023-05-25T23:33:15.684Z,3.97
2023-05-25T23:35:43.948Z,4.00
2023-05-25T23:38:13.852Z,4.20
2023-05-25T23:40:41.908Z,3.57
2023-05-25T23:43:09.928Z,3.70
2023-05-25T23:45:37.981Z,3.50
2023-05-25T23:48:06.305Z,3.50
2023-05-25T23:50:34.970Z,3.20
2023-05-25T23:53:03.338Z,3.20
2023-05-25T23:55:32.723Z,3.00
2023-05-25T23:58:00.796Z,3.07
